עמוד ראשי
METAR-TAF:

METAR-TAF

שדות תעופה :

Liberia, קוסטה ריקה

קו רוחב: 10-37N, קו אורך: 085-26W, גובה: 80מטר

תצפית מזג אוויר נוכחית

הדו"ח נערך לפני 1 שעות ו 5דקות, בשעה 06:00 UTC
רוח 2קשר עם כיוונים משתנים
טמפרטורת 27 צלסיוס
לחות 74%
לחץ 1009 hPa
ראות 10 קילומטר או יותר
ללא עננים שבסיסם נמוך מ 5000 רגל או קומולונימבוס

METAR: MRLB 200600Z VRB02KT CAVOK 27/22 A2979

זמן: 01:05 (07:05 UTC)

תחזית

הדו"ח נערך לפני 1 שעות ו 15דקות, בשעה 05:50 UTC
תחזית בתוקף מ 20 ב 06 UTC עד 21 ב 06 UTC
רוח 9קשר מכיוון מזרח
ראות 10 קילומטר או יותר
מעט עננים בגובה 4000רגל
זמנית מ -
20 ב 22 UTC עד 21 ב 02 UTC
רוח 7קשר מכיוון מערב
מעט עננים בגובה 1500רגל , קומולוס מיגדלי.
סופת רעמים, גשם,

TAF: MRLB 200550Z 2006/2106 08009KT 9999 FEW040 TX35/2020Z TN23/2011Z TEMPO 2022/2102 27007KT TSRA FEW015TCU

תצפיות ותחזיות מזג אוויר לגבי יותר מ- 4,000 שדות תעופה ברחבי העולם. דוחות METAR ו- TAF.

התחנות הזמינות מסומנות בנקודות צהובות ואדומות על גבי המפה.

העבר את העכבר לנקודה הצבעונית על מנת לראות את שם התחנה.

לאחר מכן, לחץ כדי לראות את תוכן ואת תחזיות מזג האוויר.

כדי לשנות את המפה: לחץ על הכפתורים הירוקים עם הפלוס השחור כדי להתקרב; על הכפתור הירוק עם המקף כדי להתרחק; או בחיצים הירוקים למפות סמוכות.


METAR-TAF: